Time;durP1;ratioP1;P1;durP2;ratioP2;P2;SDS_P1;SDS_P2;PMS_P1;PMS_P2;Temp;Humidity;BMP_temperature;BMP_pressure;BME280_temperature;BME280_humidity;BME280_pressure;Samples;Min_cycle;Max_cycle;Signal;HPM_P1;HPM_P2
2023/03/07 00:01:19;;;;;;;16.85;11.43;;;1.10;99.90;;;;;;5000756;28;20090;-57
2023/03/07 00:03:44;;;;;;;19.58;12.13;;;1.10;99.90;;;;;;5006959;28;20031;-58
2023/03/07 00:06:10;;;;;;;18.77;13.23;;;1.10;99.90;;;;;;5001402;28;20046;-59
2023/03/07 00:08:36;;;;;;;23.48;15.13;;;1.10;99.90;;;;;;5007415;28;20034;-51
2023/03/07 00:11:04;;;;;;;21.52;14.63;;;1.10;99.90;;;;;;5000222;28;20018;-54
2023/03/07 00:13:31;;;;;;;22.52;15.60;;;1.10;99.90;;;;;;5008439;28;20168;-54
2023/03/07 00:16:05;;;;;;;24.95;15.80;;;1.20;99.90;;;;;;4999046;28;20022;-59
2023/03/07 00:18:31;;;;;;;21.55;15.48;;;1.20;99.90;;;;;;5001264;28;20445;-53
2023/03/07 00:21:06;;;;;;;24.42;16.70;;;1.20;99.90;;;;;;5003569;28;20030;-54
2023/03/07 00:23:36;;;;;;;23.58;17.20;;;1.20;99.90;;;;;;5003362;28;20053;-54
2023/03/07 00:26:07;;;;;;;24.33;16.50;;;1.10;99.90;;;;;;5003526;28;20034;-53
2023/03/07 00:28:33;;;;;;;24.70;16.23;;;1.20;99.90;;;;;;5001479;28;20125;-59
2023/03/07 00:31:10;;;;;;;25.73;17.20;;;1.20;99.90;;;;;;5003650;28;20022;-59
2023/03/07 00:33:36;;;;;;;;;;;1.20;99.90;;;;;;5003075;28;20425;-55
2023/03/07 00:36:09;;;;;;;25.50;16.65;;;1.10;99.90;;;;;;5003134;28;19909;-57
2023/03/07 00:38:35;;;;;;;26.83;18.13;;;1.10;99.90;;;;;;5002875;28;20109;-51
2023/03/07 00:41:07;;;;;;;31.85;19.25;;;1.10;99.90;;;;;;5003078;28;20461;-56
2023/03/07 00:43:33;;;;;;;29.90;19.55;;;1.10;99.90;;;;;;5002189;28;20377;-53
2023/03/07 00:45:59;;;;;;;28.77;18.52;;;1.10;99.90;;;;;;5002178;28;20037;-55
2023/03/07 00:48:25;;;;;;;28.30;18.05;;;1.10;99.90;;;;;;5003171;28;20041;-56
2023/03/07 00:50:52;;;;;;;26.95;17.77;;;1.10;99.90;;;;;;5001908;28;20028;-55
2023/03/07 00:53:18;;;;;;;31.75;20.02;;;1.10;99.90;;;;;;5003421;28;20101;-56
2023/03/07 00:56:01;;;;;;;29.13;20.38;;;1.10;99.90;;;;;;5002577;28;20026;-59
2023/03/07 00:58:29;;;;;;;28.63;19.42;;;1.10;99.90;;;;;;5002793;28;20069;-57
2023/03/07 01:00:55;;;;;;;28.25;19.33;;;1.10;99.90;;;;;;4999314;28;20116;-56
2023/03/07 01:03:22;;;;;;;30.90;20.77;;;1.10;99.90;;;;;;5005816;28;20038;-57
2023/03/07 01:05:48;;;;;;;31.35;20.85;;;1.10;99.90;;;;;;4999638;28;20029;-52
2023/03/07 01:08:15;;;;;;;32.53;23.05;;;1.10;99.90;;;;;;5005177;28;20113;-57
2023/03/07 01:10:40;;;;;;;33.90;21.77;;;1.20;99.90;;;;;;5000292;28;20014;-59
2023/03/07 01:13:06;;;;;;;37.38;23.38;;;1.20;99.90;;;;;;4992998;28;20029;-52
2023/03/07 01:15:32;;;;;;;37.97;23.40;;;1.20;99.90;;;;;;4996557;28;20082;-53
2023/03/07 01:17:58;;;;;;;36.90;24.02;;;1.20;99.90;;;;;;4998486;28;20045;-55
2023/03/07 01:20:24;;;;;;;35.45;23.42;;;1.20;99.90;;;;;;5001354;28;20026;-58
2023/03/07 01:22:49;;;;;;;37.10;22.67;;;1.30;99.90;;;;;;5005213;28;20232;-55
2023/03/07 01:25:15;;;;;;;37.15;22.05;;;1.30;99.90;;;;;;4994636;28;20485;-58
2023/03/07 01:27:40;;;;;;;34.83;22.27;;;1.30;99.90;;;;;;5005985;28;20061;-56
2023/03/07 01:30:08;;;;;;;37.13;22.60;;;1.30;99.90;;;;;;4995371;28;20509;-57
2023/03/07 01:32:34;;;;;;;38.42;22.50;;;1.30;99.90;;;;;;5005231;28;20464;-56
2023/03/07 01:34:59;;;;;;;35.40;22.77;;;1.30;99.90;;;;;;4998921;28;20022;-57
2023/03/07 01:37:25;;;;;;;33.80;23.00;;;1.30;99.90;;;;;;4997929;28;20539;-58
2023/03/07 01:39:52;;;;;;;33.75;22.27;;;1.40;99.90;;;;;;4998246;28;20104;-57
2023/03/07 01:42:18;;;;;;;34.47;21.30;;;1.30;99.90;;;;;;4994829;28;20037;-59
2023/03/07 01:45:01;;;;;;;33.47;21.58;;;1.30;99.90;;;;;;5005844;28;20026;-58
2023/03/07 01:47:27;;;;;;;36.08;21.10;;;1.30;99.90;;;;;;4990480;28;20501;-58
2023/03/07 01:49:54;;;;;;;32.47;20.88;;;1.30;99.90;;;;;;5002094;28;20128;-56
2023/03/07 01:52:31;;;;;;;33.75;22.73;;;1.40;99.90;;;;;;5000661;28;20022;-56
2023/03/07 01:55:10;;;;;;;33.60;21.58;;;1.30;99.90;;;;;;4988945;28;20516;-53
2023/03/07 01:57:39;;;;;;;31.77;20.52;;;1.30;99.90;;;;;;4998953;28;20027;-57
2023/03/07 02:00:10;;;;;;;30.70;20.35;;;1.30;99.90;;;;;;4999518;28;20037;-58
2023/03/07 02:02:39;;;;;;;29.35;20.15;;;1.20;99.90;;;;;;4999249;28;20053;-58
2023/03/07 02:05:11;;;;;;;30.02;19.35;;;1.30;99.90;;;;;;5000205;28;20026;-58
2023/03/07 02:07:48;;;;;;;30.92;19.98;;;1.30;99.90;;;;;;4998675;28;20069;-56
2023/03/07 02:10:16;;;;;;;35.17;21.17;;;1.20;99.90;;;;;;5001863;28;20113;-58
2023/03/07 02:12:41;;;;;;;31.08;20.13;;;1.20;99.90;;;;;;5000622;28;20019;-55
2023/03/07 02:15:13;;;;;;;32.05;19.98;;;1.20;99.90;;;;;;5000722;28;20087;-55
2023/03/07 02:17:42;;;;;;;30.73;21.58;;;1.20;99.90;;;;;;5001412;28;20120;-57
2023/03/07 02:20:23;;;;;;;31.75;20.45;;;1.20;99.90;;;;;;5002171;28;20450;-51
2023/03/07 02:22:49;;;;;;;28.45;19.67;;;1.20;99.90;;;;;;4994178;28;20026;-56
2023/03/07 02:25:26;;;;;;;29.75;20.73;;;1.20;99.90;;;;;;5004117;28;20033;-58
2023/03/07 02:27:55;;;;;;;28.08;19.05;;;1.10;99.90;;;;;;4994382;28;20393;-51
2023/03/07 02:30:21;;;;;;;32.03;20.08;;;1.20;99.90;;;;;;5005681;28;20041;-55
2023/03/07 02:32:47;;;;;;;33.13;20.67;;;1.20;99.90;;;;;;4998778;28;20022;-56
2023/03/07 02:35:21;;;;;;;31.98;20.38;;;1.10;99.90;;;;;;4998367;28;20034;-54
2023/03/07 02:37:51;;;;;;;31.73;19.80;;;1.20;99.90;;;;;;5003663;28;20095;-57
2023/03/07 02:40:21;;;;;;;30.38;19.80;;;1.20;99.90;;;;;;4997772;28;20027;-55
2023/03/07 02:42:47;;;;;;;31.65;19.02;;;1.20;99.90;;;;;;5005360;28;20413;-54
2023/03/07 02:45:16;;;;;;;33.60;21.63;;;1.20;99.90;;;;;;4996617;28;20507;-59
2023/03/07 02:47:42;;;;;;;32.25;21.55;;;1.20;99.90;;;;;;5005918;28;20026;-58
2023/03/07 02:50:09;;;;;;;29.95;19.30;;;1.20;99.90;;;;;;4997869;28;20023;-56
2023/03/07 02:52:35;;;;;;;33.13;19.83;;;1.20;99.90;;;;;;4999445;28;20065;-54
2023/03/07 02:55:00;;;;;;;32.17;20.38;;;1.20;99.90;;;;;;5002591;28;20062;-58
2023/03/07 02:57:26;;;;;;;33.22;20.83;;;1.20;99.90;;;;;;5001363;28;20034;-54
2023/03/07 02:59:51;;;;;;;32.97;19.60;;;1.20;99.90;;;;;;4999607;28;20060;-59
2023/03/07 03:02:17;;;;;;;30.27;19.90;;;1.30;99.90;;;;;;4999959;28;20480;-57
2023/03/07 03:04:42;;;;;;;30.25;19.45;;;1.30;99.90;;;;;;4998387;28;20484;-58
2023/03/07 03:07:08;;;;;;;30.25;18.52;;;1.30;99.90;;;;;;4996340;28;20492;-59
2023/03/07 03:09:34;;;;;;;32.10;20.10;;;1.30;99.90;;;;;;4999803;28;20136;-59
2023/03/07 03:11:59;;;;;;;32.50;20.05;;;1.30;99.90;;;;;;5001515;28;20022;-56
2023/03/07 03:14:25;;;;;;;32.80;20.25;;;1.30;99.90;;;;;;5000408;28;20064;-59
2023/03/07 03:16:52;;;;;;;31.77;20.75;;;1.40;99.90;;;;;;5004763;28;20484;-58
2023/03/07 03:19:18;;;;;;;32.35;20.38;;;1.40;99.90;;;;;;5003611;28;20030;-59
2023/03/07 03:21:43;;;;;;;30.67;19.77;;;1.40;99.90;;;;;;5004202;28;20018;-55
2023/03/07 03:24:09;;;;;;;28.83;20.30;;;1.40;99.90;;;;;;5005194;28;20388;-56
2023/03/07 03:26:35;;;;;;;35.97;21.40;;;1.40;99.90;;;;;;5003527;28;20050;-55
2023/03/07 03:29:02;;;;;;;29.00;20.00;;;1.40;99.90;;;;;;5004509;28;20026;-58
2023/03/07 03:31:29;;;;;;;32.05;20.55;;;1.40;99.90;;;;;;5002816;28;20023;-55
2023/03/07 03:33:55;;;;;;;32.97;20.52;;;1.50;99.90;;;;;;5000694;28;20018;-59
2023/03/07 03:36:24;;;;;;;29.42;18.65;;;1.50;99.90;;;;;;5000204;28;20403;-58
2023/03/07 03:38:51;;;;;;;31.20;20.17;;;1.50;99.90;;;;;;4992737;28;20018;-58
2023/03/07 03:41:17;;;;;;;28.55;18.92;;;1.60;99.90;;;;;;5004508;28;20496;-58
2023/03/07 03:43:43;;;;;;;29.73;17.50;;;1.60;99.90;;;;;;5004127;28;20025;-56
2023/03/07 03:46:08;;;;;;;29.42;19.73;;;1.60;99.90;;;;;;5004404;28;20040;-54
2023/03/07 03:48:34;;;;;;;29.58;18.50;;;1.60;99.90;;;;;;5000644;28;20038;-56
2023/03/07 03:51:11;;;;;;;32.63;19.00;;;1.60;99.90;;;;;;5004723;28;20065;-55
2023/03/07 03:53:38;;;;;;;27.30;17.55;;;1.70;99.90;;;;;;5001963;28;20025;-60
2023/03/07 03:56:07;;;;;;;28.02;17.48;;;1.70;99.90;;;;;;5004450;28;20033;-58
2023/03/07 03:58:34;;;;;;;27.67;18.25;;;1.60;99.90;;;;;;5003387;28;20031;-53
2023/03/07 04:01:04;;;;;;;26.63;18.00;;;1.60;99.90;;;;;;5004002;28;20072;-60
2023/03/07 04:03:33;;;;;;;26.48;17.50;;;1.70;99.90;;;;;;5003373;28;20041;-55
2023/03/07 04:06:01;;;;;;;25.30;15.73;;;1.70;99.90;;;;;;5003146;28;20033;-54
2023/03/07 04:08:26;;;;;;;25.08;15.07;;;1.70;99.90;;;;;;5003048;28;20029;-58
2023/03/07 04:10:52;;;;;;;20.30;15.35;;;1.70;99.90;;;;;;5004216;28;20022;-59
2023/03/07 04:13:17;;;;;;;31.83;14.45;;;1.70;99.90;;;;;;5004113;28;20022;-56
2023/03/07 04:15:43;;;;;;;22.00;13.27;;;1.70;99.90;;;;;;5001490;28;20022;-57
2023/03/07 04:18:08;;;;;;;20.05;12.95;;;1.80;99.90;;;;;;5002768;28;20026;-57
2023/03/07 04:20:34;;;;;;;21.52;13.10;;;1.80;99.90;;;;;;5004112;28;20110;-59
2023/03/07 04:22:59;;;;;;;23.70;13.30;;;1.80;99.90;;;;;;4997576;28;20030;-55
2023/03/07 04:25:25;;;;;;;20.30;12.80;;;1.80;99.90;;;;;;5003585;28;20392;-55
2023/03/07 04:27:50;;;;;;;22.08;13.35;;;1.90;99.90;;;;;;5002911;28;20080;-57
2023/03/07 04:30:16;;;;;;;22.02;12.27;;;1.90;99.90;;;;;;5003707;28;20034;-61
2023/03/07 04:32:41;;;;;;;20.02;11.15;;;1.90;99.90;;;;;;5001305;28;20030;-55
2023/03/07 04:35:07;;;;;;;18.42;10.90;;;1.90;99.90;;;;;;5004082;28;20117;-57
2023/03/07 04:37:33;;;;;;;16.05;9.70;;;1.90;99.90;;;;;;5002031;28;20030;-60
2023/03/07 04:39:58;;;;;;;17.02;11.18;;;1.90;99.90;;;;;;5003517;28;20514;-59
2023/03/07 04:42:24;;;;;;;15.43;9.38;;;1.90;99.90;;;;;;5003386;28;20030;-54
2023/03/07 04:44:50;;;;;;;21.40;8.32;;;1.90;99.90;;;;;;4999781;28;20018;-57
2023/03/07 04:47:15;;;;;;;13.30;8.25;;;1.90;99.90;;;;;;5003259;28;20034;-54
2023/03/07 04:49:41;;;;;;;16.40;8.07;;;1.90;99.90;;;;;;5000811;28;20113;-58
2023/03/07 04:52:06;;;;;;;10.48;6.00;;;1.90;99.90;;;;;;5002570;28;20022;-54
2023/03/07 04:54:32;;;;;;;10.23;6.75;;;1.90;99.90;;;;;;5006114;28;20021;-55
2023/03/07 04:56:57;;;;;;;9.35;5.53;;;1.90;99.90;;;;;;5003091;28;20026;-54
2023/03/07 04:59:23;;;;;;;10.90;6.00;;;1.90;99.90;;;;;;4994858;28;20445;-57
2023/03/07 05:01:49;;;;;;;11.50;5.10;;;1.90;99.90;;;;;;5005190;28;20068;-57
2023/03/07 05:04:14;;;;;;;8.32;4.60;;;1.90;99.90;;;;;;5003178;28;20030;-54
2023/03/07 05:06:40;;;;;;;8.48;4.65;;;1.90;99.90;;;;;;4994327;28;20088;-58
2023/03/07 05:09:05;;;;;;;6.28;3.33;;;2.00;99.90;;;;;;5001752;28;20404;-56
2023/03/07 05:11:31;;;;;;;8.23;3.55;;;2.00;99.90;;;;;;5007485;28;20022;-52
2023/03/07 05:13:56;;;;;;;6.03;3.00;;;2.00;99.90;;;;;;4999591;28;20473;-55
2023/03/07 05:16:22;;;;;;;7.95;3.08;;;2.00;99.90;;;;;;4999379;28;20428;-55
2023/03/07 05:18:47;;;;;;;11.63;3.47;;;2.00;99.90;;;;;;5005457;28;20564;-58
2023/03/07 05:21:13;;;;;;;7.13;2.80;;;2.00;99.90;;;;;;4998084;28;20453;-56
2023/03/07 05:23:39;;;;;;;7.68;3.15;;;2.00;99.90;;;;;;5006284;28;20033;-56
2023/03/07 05:26:04;;;;;;;7.07;2.45;;;2.00;99.90;;;;;;4999117;28;20030;-56
2023/03/07 05:28:30;;;;;;;2.83;1.90;;;2.00;99.90;;;;;;5006907;28;20026;-59
2023/03/07 05:30:55;;;;;;;6.47;2.10;;;2.10;99.90;;;;;;4998907;28;20026;-52
2023/03/07 05:33:21;;;;;;;6.43;2.47;;;2.10;99.90;;;;;;4999235;28;20033;-56
2023/03/07 05:35:47;;;;;;;16.08;3.00;;;2.10;99.90;;;;;;5005382;28;20018;-53
2023/03/07 05:38:13;;;;;;;6.07;1.95;;;2.10;99.90;;;;;;4998644;28;20030;-59
2023/03/07 05:40:39;;;;;;;6.70;2.15;;;2.10;99.90;;;;;;5004584;28;20037;-55
2023/03/07 05:43:05;;;;;;;3.05;1.52;;;2.10;99.90;;;;;;4999012;28;20485;-55
2023/03/07 05:45:31;;;;;;;3.55;1.75;;;2.10;99.90;;;;;;5006556;28;20443;-55
2023/03/07 05:47:56;;;;;;;7.70;2.60;;;2.10;99.90;;;;;;4997516;28;20030;-55
2023/03/07 05:50:22;;;;;;;5.13;2.05;;;2.20;99.90;;;;;;4999185;28;20046;-55
2023/03/07 05:52:48;;;;;;;10.10;1.55;;;2.20;99.90;;;;;;5005285;28;20359;-59
2023/03/07 05:55:14;;;;;;;7.47;1.60;;;2.10;99.90;;;;;;4999401;28;20025;-56
2023/03/07 05:57:39;;;;;;;4.57;0.93;;;2.20;99.90;;;;;;5006264;28;20493;-56
2023/03/07 06:00:06;;;;;;;4.80;1.17;;;2.20;99.90;;;;;;4996985;28;20032;-60
2023/03/07 06:02:31;;;;;;;5.45;1.42;;;2.10;99.90;;;;;;5005504;28;20080;-55
2023/03/07 06:04:57;;;;;;;3.78;1.20;;;2.10;99.90;;;;;;4998750;28;20050;-59
2023/03/07 06:07:22;;;;;;;1.88;1.08;;;2.10;99.90;;;;;;4997092;28;20499;-57
2023/03/07 06:09:48;;;;;;;6.43;0.98;;;2.20;99.90;;;;;;5002084;28;20443;-58
2023/03/07 06:12:13;;;;;;;4.00;1.40;;;2.20;99.90;;;;;;5003412;28;20041;-60
2023/03/07 06:14:39;;;;;;;6.68;1.13;;;2.20;99.90;;;;;;5000403;28;20029;-54
2023/03/07 06:17:05;;;;;;;7.55;1.45;;;2.20;99.90;;;;;;5001812;28;20057;-57
2023/03/07 06:19:30;;;;;;;5.15;1.20;;;2.20;99.90;;;;;;4999435;28;20488;-56
2023/03/07 06:21:56;;;;;;;3.42;1.38;;;2.20;99.90;;;;;;5002000;28;20056;-55
2023/03/07 06:24:21;;;;;;;5.60;1.60;;;2.30;99.90;;;;;;5001220;28;20070;-59
2023/03/07 06:26:47;;;;;;;5.38;2.10;;;2.30;99.90;;;;;;5000240;28;20278;-56
2023/03/07 06:29:12;;;;;;;10.57;2.58;;;2.30;99.90;;;;;;5001468;28;20029;-54
2023/03/07 06:31:38;;;;;;;8.15;2.63;;;2.30;99.90;;;;;;5000243;28;20014;-58
2023/03/07 06:34:03;;;;;;;4.63;1.92;;;2.30;99.90;;;;;;5002035;28;20435;-56
2023/03/07 06:36:29;;;;;;;3.78;1.60;;;2.30;99.90;;;;;;4999506;28;20074;-57
2023/03/07 06:38:55;;;;;;;5.70;1.83;;;2.40;99.90;;;;;;5001687;28;20033;-55
2023/03/07 06:41:20;;;;;;;6.03;1.60;;;2.40;99.90;;;;;;5000951;28;20221;-56
2023/03/07 06:43:50;;;;;;;4.50;1.30;;;2.50;99.90;;;;;;5001008;28;20040;-57
2023/03/07 06:46:17;;;;;;;6.03;1.60;;;2.40;99.90;;;;;;5002121;28;20022;-57
2023/03/07 06:48:42;;;;;;;6.93;1.88;;;2.40;99.90;;;;;;4999969;28;20030;-55
2023/03/07 06:51:09;;;;;;;4.85;1.35;;;2.40;99.90;;;;;;5003623;28;20544;-56
2023/03/07 06:53:35;;;;;;;4.63;1.30;;;2.40;99.90;;;;;;5003242;28;20149;-57
2023/03/07 06:56:00;;;;;;;1.67;0.95;;;2.40;99.90;;;;;;5005082;28;20049;-56
2023/03/07 06:58:26;;;;;;;5.43;1.10;;;2.50;99.90;;;;;;5003877;28;20023;-58
2023/03/07 07:00:51;;;;;;;5.38;1.00;;;2.50;99.90;;;;;;5004781;28;20499;-52
2023/03/07 07:03:18;;;;;;;3.53;1.05;;;2.50;99.90;;;;;;5005886;28;20441;-57
2023/03/07 07:05:44;;;;;;;3.17;1.25;;;2.50;99.90;;;;;;5004338;28;20169;-57
2023/03/07 07:08:11;;;;;;;3.75;1.13;;;2.40;99.90;;;;;;5005012;28;20445;-55
2023/03/07 07:10:37;;;;;;;7.40;1.55;;;2.40;99.90;;;;;;5004441;28;20526;-56
2023/03/07 07:13:03;;;;;;;6.00;1.10;;;2.40;99.90;;;;;;5004980;28;20446;-57
2023/03/07 07:15:29;;;;;;;7.97;1.13;;;2.30;99.90;;;;;;4993546;28;20211;-57
2023/03/07 07:17:55;;;;;;;5.97;1.38;;;2.30;99.90;;;;;;5003329;28;20146;-54
2023/03/07 07:20:22;;;;;;;3.00;1.55;;;2.30;99.90;;;;;;5001346;28;20090;-53
2023/03/07 07:22:47;;;;;;;6.95;1.77;;;2.40;99.90;;;;;;5009176;28;20057;-57
2023/03/07 07:25:13;;;;;;;7.32;1.75;;;2.40;99.90;;;;;;5004577;28;20057;-53
2023/03/07 07:27:39;;;;;;;4.30;0.98;;;2.50;99.90;;;;;;5001661;28;20223;-56
2023/03/07 07:30:06;;;;;;;7.28;1.70;;;2.50;99.90;;;;;;5002947;28;20030;-56
2023/03/07 07:32:31;;;;;;;1.60;0.77;;;2.50;99.90;;;;;;4998197;28;20484;-58
2023/03/07 07:34:57;;;;;;;7.28;1.30;;;2.50;99.90;;;;;;5004589;28;20068;-56
2023/03/07 07:37:23;;;;;;;4.38;1.17;;;2.50;99.90;;;;;;5004400;28;20496;-57
2023/03/07 07:39:51;;;;;;;3.53;1.25;;;2.50;99.90;;;;;;5002614;28;20030;-54
2023/03/07 07:42:16;;;;;;;6.10;2.10;;;2.50;99.90;;;;;;5004671;28;20404;-55
2023/03/07 07:44:42;;;;;;;2.30;0.85;;;2.50;99.90;;;;;;5001633;28;20038;-58
2023/03/07 07:47:08;;;;;;;7.68;1.55;;;2.60;99.90;;;;;;5004091;28;20022;-59
2023/03/07 07:49:34;;;;;;;3.55;1.00;;;2.60;99.90;;;;;;4999570;28;20611;-55
2023/03/07 07:52:00;;;;;;;4.45;1.13;;;2.60;99.90;;;;;;5003631;28;20044;-53
2023/03/07 07:54:25;;;;;;;2.88;1.00;;;2.70;99.90;;;;;;5003964;28;20030;-58
2023/03/07 07:56:51;;;;;;;4.68;1.17;;;2.70;99.90;;;;;;5002958;28;20030;-55
2023/03/07 07:59:16;;;;;;;7.53;1.02;;;2.80;99.90;;;;;;5003840;28;20034;-58
2023/03/07 08:01:42;;;;;;;4.45;1.60;;;2.90;99.90;;;;;;5002222;28;20097;-55
2023/03/07 08:04:08;;;;;;;6.95;2.03;;;2.90;99.90;;;;;;5004042;28;20037;-53
2023/03/07 08:06:33;;;;;;;7.72;1.52;;;2.90;99.90;;;;;;5002518;28;20045;-58
2023/03/07 08:08:59;;;;;;;6.95;1.13;;;2.90;99.90;;;;;;5001155;28;20594;-58
2023/03/07 08:11:25;;;;;;;8.57;2.00;;;2.90;99.90;;;;;;5002575;28;20026;-60
2023/03/07 08:13:51;;;;;;;8.48;1.40;;;2.90;99.90;;;;;;5002882;28;20037;-57
2023/03/07 08:16:19;;;;;;;6.07;1.58;;;2.90;99.90;;;;;;5004005;28;20048;-54
2023/03/07 08:18:50;;;;;;;10.15;1.70;;;2.90;99.90;;;;;;5003019;28;20036;-55
2023/03/07 08:21:15;;;;;;;5.63;1.40;;;2.90;99.90;;;;;;5003734;28;20133;-57
2023/03/07 08:23:41;;;;;;;7.53;2.03;;;2.90;99.90;;;;;;4997133;28;20549;-57
2023/03/07 08:26:09;;;;;;;6.30;1.33;;;2.90;99.90;;;;;;5003496;28;20244;-53
2023/03/07 08:28:36;;;;;;;5.55;1.27;;;3.00;99.90;;;;;;5000813;28;20120;-55
2023/03/07 08:31:18;;;;;;;4.40;0.85;;;3.00;99.90;;;;;;5003233;28;20072;-58
2023/03/07 08:33:46;;;;;;;4.85;0.88;;;3.00;99.90;;;;;;5000961;28;20038;-55
2023/03/07 08:36:12;;;;;;;5.88;1.30;;;2.90;99.90;;;;;;4999622;28;20039;-57
2023/03/07 08:38:38;;;;;;;7.28;1.67;;;2.80;99.90;;;;;;5006167;28;20022;-58
2023/03/07 08:41:06;;;;;;;6.28;1.35;;;2.70;99.90;;;;;;4999449;28;20040;-57
2023/03/07 08:43:33;;;;;;;11.38;1.38;;;2.60;99.90;;;;;;5006834;28;20050;-54
2023/03/07 08:45:59;;;;;;;5.90;1.60;;;2.60;99.90;;;;;;4999184;28;20060;-57
2023/03/07 08:48:26;;;;;;;4.47;1.17;;;2.50;99.90;;;;;;5007685;28;20121;-57
2023/03/07 08:50:52;;;;;;;6.95;1.52;;;2.60;99.90;;;;;;4999804;28;20054;-55
2023/03/07 08:53:18;;;;;;;3.15;1.08;;;2.70;99.90;;;;;;4998687;28;20034;-54
2023/03/07 08:55:43;;;;;;;8.23;1.23;;;2.80;99.90;;;;;;5005717;28;20018;-55
2023/03/07 08:58:09;;;;;;;3.80;0.80;;;2.80;99.90;;;;;;4999414;28;20076;-55
2023/03/07 09:00:36;;;;;;;12.02;2.58;;;2.80;99.90;;;;;;5006392;28;20436;-56
2023/03/07 09:03:02;;;;;;;5.25;1.60;;;2.90;99.90;;;;;;4999470;28;20034;-52
2023/03/07 09:05:28;;;;;;;10.00;1.90;;;3.00;99.90;;;;;;5007183;28;20053;-56
2023/03/07 09:07:54;;;;;;;11.85;2.28;;;3.00;99.90;;;;;;4999200;28;20065;-54
2023/03/07 09:10:21;;;;;;;10.45;2.42;;;3.10;99.90;;;;;;4999428;28;20473;-55
2023/03/07 09:12:47;;;;;;;9.65;1.73;;;3.10;99.90;;;;;;5005404;28;20018;-54
2023/03/07 09:15:13;;;;;;;5.63;1.63;;;3.10;99.90;;;;;;4999132;28;20105;-57
2023/03/07 09:17:38;;;;;;;8.45;2.15;;;3.10;99.90;;;;;;5006575;28;20113;-55
2023/03/07 09:20:06;;;;;;;12.02;1.92;;;3.10;99.90;;;;;;4999038;28;20481;-55
2023/03/07 09:22:32;;;;;;;3.03;1.25;;;3.00;99.90;;;;;;5003976;28;20088;-54
2023/03/07 09:24:57;;;;;;;5.80;1.45;;;2.80;99.90;;;;;;5002625;28;20025;-56
2023/03/07 09:27:23;;;;;;;3.50;0.88;;;2.50;99.90;;;;;;5001454;28;20053;-52
2023/03/07 09:29:49;;;;;;;5.38;1.27;;;2.40;99.90;;;;;;5002084;28;20022;-53
2023/03/07 09:32:14;;;;;;;6.25;1.35;;;2.40;99.90;;;;;;5003560;28;20037;-55
2023/03/07 09:34:40;;;;;;;5.63;0.75;;;2.40;99.90;;;;;;5000880;28;20477;-55
2023/03/07 09:37:06;;;;;;;5.32;1.30;;;2.40;99.90;;;;;;5001855;28;20109;-52
2023/03/07 09:39:31;;;;;;;6.38;1.67;;;2.50;99.90;;;;;;4999846;28;20029;-52
2023/03/07 09:42:30;;;;;;;5.60;1.42;;;2.50;99.90;;;;;;5002537;28;20045;-53
2023/03/07 09:45:09;;;;;;;4.03;1.00;;;2.50;99.90;;;;;;5001853;28;20057;-58
2023/03/07 09:48:02;;;;;;;1.83;1.10;;;2.40;99.90;;;;;;5000377;28;20037;-56
2023/03/07 09:50:38;;;;;;;3.42;1.17;;;2.30;99.90;;;;;;5000194;28;20395;-52
2023/03/07 09:53:04;;;;;;;6.05;1.33;;;2.30;99.90;;;;;;4998635;28;20440;-56
2023/03/07 09:55:31;;;;;;;8.88;1.83;;;2.30;99.90;;;;;;5005053;28;20502;-56
2023/03/07 09:58:07;;;;;;;7.57;1.83;;;2.30;99.90;;;;;;4997504;28;20029;-55
2023/03/07 10:00:39;;;;;;;2.92;1.15;;;2.30;99.90;;;;;;5004169;28;20488;-55
2023/03/07 10:03:32;;;;;;;3.67;0.68;;;2.30;99.90;;;;;;4998923;28;20034;-55
2023/03/07 10:06:13;;;;;;;6.18;1.63;;;2.30;99.90;;;;;;4991740;28;20126;-51
2023/03/07 10:08:38;;;;;;;6.18;1.40;;;2.30;99.90;;;;;;4998382;28;20030;-55
2023/03/07 10:11:07;;;;;;;4.45;1.23;;;2.30;99.90;;;;;;5001704;28;20510;-53
2023/03/07 10:13:54;;;;;;;4.50;1.40;;;2.40;99.90;;;;;;4999839;28;20022;-55
2023/03/07 10:16:35;;;;;;;7.38;1.23;;;2.40;99.90;;;;;;5001501;28;20022;-53
2023/03/07 10:19:16;;;;;;;6.40;1.08;;;2.50;99.90;;;;;;4993515;28;20543;-58
2023/03/07 10:22:08;;;;;;;4.43;1.08;;;2.70;99.90;;;;;;5001283;28;20113;-55
2023/03/07 10:24:48;;;;;;;6.72;1.55;;;2.60;99.90;;;;;;4996520;28;20440;-54
2023/03/07 10:27:15;;;;;;;5.38;1.50;;;2.50;99.90;;;;;;5001880;28;20026;-53
2023/03/07 10:29:49;;;;;;;6.28;1.75;;;2.10;99.90;;;;;;5000240;28;20049;-51
2023/03/07 10:32:28;;;;;;;7.97;3.17;;;1.90;99.90;;;;;;5002628;28;20022;-57
2023/03/07 10:35:01;;;;;;;24.77;10.60;;;1.80;99.90;;;;;;4989706;28;20136;-54
2023/03/07 10:37:49;;;;;;;11.27;2.50;;;1.90;99.90;;;;;;4999274;28;20029;-57
2023/03/07 10:40:47;;;;;;;8.15;2.22;;;2.00;99.90;;;;;;5000099;28;20026;-56
2023/03/07 10:43:21;;;;;;;4.55;2.25;;;2.10;99.90;;;;;;4998921;28;20420;-55
2023/03/07 10:45:47;;;;;;;4.68;1.60;;;2.20;99.90;;;;;;4998084;28;20022;-55
2023/03/07 10:48:17;;;;;;;4.78;1.92;;;2.40;99.90;;;;;;5004562;28;20377;-55
2023/03/07 10:50:48;;;;;;;3.42;0.73;;;2.60;99.90;;;;;;4999282;28;20087;-53
2023/03/07 10:53:24;;;;;;;8.20;1.42;;;2.80;99.90;;;;;;4991964;28;20030;-52
2023/03/07 10:55:49;;;;;;;5.97;1.55;;;3.00;99.90;;;;;;5004458;28;20023;-57
2023/03/07 10:58:25;;;;;;;8.98;1.50;;;3.30;99.90;;;;;;4998106;28;20200;-54
2023/03/07 11:01:05;;;;;;;8.80;1.60;;;3.40;99.90;;;;;;4991078;28;20026;-55
2023/03/07 11:03:38;;;;;;;8.00;1.63;;;3.70;99.90;;;;;;4995226;28;20023;-52
2023/03/07 11:06:04;;;;;;;9.55;1.42;;;3.80;99.90;;;;;;5004386;28;20030;-53
2023/03/07 11:08:32;;;;;;;7.15;1.35;;;3.80;99.90;;;;;;4998155;28;20590;-57
2023/03/07 11:10:59;;;;;;;8.15;1.63;;;3.70;99.90;;;;;;5001448;28;20029;-56
2023/03/07 11:13:25;;;;;;;6.47;1.80;;;3.60;99.90;;;;;;4998033;28;20022;-57
2023/03/07 11:16:06;;;;;;;4.20;1.17;;;3.50;99.90;;;;;;5000096;28;20026;-50
2023/03/07 11:18:40;;;;;;;8.75;1.38;;;3.40;99.90;;;;;;5000489;28;20027;-53
2023/03/07 11:21:32;;;;;;;7.55;1.20;;;3.40;99.90;;;;;;5001104;28;20030;-52
2023/03/07 11:24:19;;;;;;;5.82;1.10;;;3.50;99.90;;;;;;4990907;28;20389;-53
2023/03/07 11:26:44;;;;;;;7.03;1.70;;;3.80;99.90;;;;;;5004697;28;20033;-55
2023/03/07 11:29:12;;;;;;;4.95;1.48;;;4.00;99.90;;;;;;4997307;28;20037;-55
2023/03/07 11:32:03;;;;;;;3.13;0.95;;;4.10;99.90;;;;;;5005573;28;20389;-55
2023/03/07 11:34:48;;;;;;;4.38;1.30;;;4.20;99.90;;;;;;4996771;28;20384;-52
2023/03/07 11:37:27;;;;;;;3.17;0.60;;;4.30;99.90;;;;;;5002811;28;20088;-58
2023/03/07 11:40:20;;;;;;;6.22;1.10;;;4.40;99.90;;;;;;4993380;28;20020;-51
2023/03/07 11:42:59;;;;;;;4.53;1.40;;;4.30;99.90;;;;;;5002073;28;20041;-51
2023/03/07 11:45:39;;;;;;;8.77;1.00;;;4.30;99.90;;;;;;5003997;28;20081;-58
2023/03/07 11:48:13;;;;;;;3.55;0.65;;;4.30;99.90;;;;;;5006426;28;20117;-54
2023/03/07 11:50:42;;;;;;;3.70;1.27;;;4.30;99.90;;;;;;4994900;28;20026;-54
2023/03/07 11:53:59;;;;;;;8.95;1.42;;;4.30;99.90;;;;;;5000141;28;20030;-53
2023/03/07 11:56:32;;;;;;;2.67;1.17;;;4.40;99.90;;;;;;4960014;28;20030;-57
2023/03/07 11:59:29;;;;;;;3.20;1.30;;;4.40;99.90;;;;;;5003941;28;20041;-58
2023/03/07 12:02:01;;;;;;;2.93;1.13;;;4.20;99.90;;;;;;5002909;28;20026;-56
2023/03/07 12:04:38;;;;;;;4.50;1.55;;;4.00;99.90;;;;;;5003729;28;20018;-55
2023/03/07 12:07:41;;;;;;;3.47;1.33;;;3.90;99.90;;;;;;5004497;28;20155;-57
2023/03/07 12:10:34;;;;;;;3.22;1.05;;;3.80;99.90;;;;;;4999811;28;20125;-56
2023/03/07 12:13:17;;;;;;;3.70;0.70;;;3.60;99.90;;;;;;4995650;28;20103;-56
2023/03/07 12:16:07;;;;;;;10.52;1.92;;;3.60;99.90;;;;;;5001548;28;20026;-56
2023/03/07 12:19:00;;;;;;;5.05;1.02;;;3.60;99.90;;;;;;5002650;28;20151;-53
2023/03/07 12:21:29;;;;;;;5.18;0.82;;;3.70;99.90;;;;;;5003542;28;20025;-53
2023/03/07 12:24:01;;;;;;;6.28;1.25;;;3.70;99.90;;;;;;5003613;28;20014;-57
2023/03/07 12:26:35;;;;;;;8.63;1.25;;;3.90;99.90;;;;;;5006000;28;20095;-59
2023/03/07 12:29:05;;;;;;;6.57;1.13;;;3.90;99.90;;;;;;4999974;28;20054;-58
2023/03/07 12:31:36;;;;;;;5.90;1.08;;;3.90;99.90;;;;;;5006893;28;20057;-54
2023/03/07 12:34:09;;;;;;;6.03;1.27;;;4.00;99.90;;;;;;5000355;28;20023;-59
2023/03/07 12:36:51;;;;;;;4.25;1.20;;;4.20;99.90;;;;;;5001061;28;20477;-56
2023/03/07 12:39:30;;;;;;;4.97;0.90;;;4.20;99.90;;;;;;5001263;28;20392;-53
2023/03/07 12:42:26;;;;;;;2.95;0.95;;;4.30;99.90;;;;;;4990891;28;20420;-56
2023/03/07 12:45:00;;;;;;;5.20;1.05;;;4.20;99.90;;;;;;5003382;28;20026;-54
2023/03/07 12:47:41;;;;;;;6.18;1.35;;;4.30;99.90;;;;;;5002692;28;20038;-55
2023/03/07 12:50:28;;;;;;;4.82;0.82;;;4.40;99.90;;;;;;5003038;28;20026;-55
2023/03/07 12:53:00;;;;;;;4.30;0.73;;;4.50;99.90;;;;;;4997346;28;20025;-56
2023/03/07 12:55:44;;;;;;;2.83;0.75;;;4.50;99.30;;;;;;5006243;28;20111;-58
2023/03/07 12:58:47;;;;;;;3.80;0.93;;;4.60;99.90;;;;;;4999136;28;20026;-55
2023/03/07 13:01:26;;;;;;;8.93;1.17;;;4.70;99.90;;;;;;4995793;28;20029;-56
2023/03/07 13:04:15;;;;;;;7.15;1.75;;;4.60;99.90;;;;;;4990125;28;20022;-57